AFR78TR LFPG-ELLX
Flight info
| Callsign | AFR78TR |
|---|---|
| Flight time | 0h 33m |
| Altitude | 19000 |
| Route | DIKOL J10 SUIPE M163 MMD |
| Aircraft | A320/M-SDE3FGHIRWY/LB1 |
Departure
| Time | 2026-05-05 14:13 |
|---|---|
| Airport | Charles de Gaulle International Airport (LFPG) |
Arrival
| Time | 2026-05-05 14:47 |
|---|---|
| Airport | Luxembourg-Findel International Airport (ELLX) |
| Time | Latitude | Longitude | Altitude | Speed | Heading |
|---|---|---|---|---|---|
| 2026-05-05 13:47 | 49.00291 | 2.58415 | 353 ft | 0 kts | 85° |
| 2026-05-05 14:00 | 49.00291 | 2.58414 | 353 ft | 2 kts | 85° |
| 2026-05-05 14:00 | 49.00290 | 2.58389 | 361 ft | 2 kts | 88° |
| 2026-05-05 14:01 | 49.00290 | 2.58364 | 360 ft | 2 kts | 94° |
| 2026-05-05 14:01 | 49.00292 | 2.58339 | 363 ft | 2 kts | 125° |
| 2026-05-05 14:01 | 49.00305 | 2.58326 | 363 ft | 2 kts | 174° |
| 2026-05-05 14:01 | 49.00309 | 2.58326 | 362 ft | 0 kts | 173° |
| 2026-05-05 14:05 | 49.00307 | 2.58326 | 353 ft | 2 kts | 173° |
| 2026-05-05 14:05 | 49.00253 | 2.58333 | 353 ft | 9 kts | 176° |
| 2026-05-05 14:06 | 49.00192 | 2.58339 | 353 ft | 8 kts | 176° |
| 2026-05-05 14:06 | 49.00138 | 2.58346 | 359 ft | 9 kts | 175° |
| 2026-05-05 14:06 | 49.00066 | 2.58327 | 358 ft | 10 kts | 191° |
| 2026-05-05 14:06 | 49.00009 | 2.58259 | 357 ft | 12 kts | 261° |
| 2026-05-05 14:07 | 49.00003 | 2.58137 | 354 ft | 12 kts | 265° |
| 2026-05-05 14:07 | 48.99994 | 2.57952 | 354 ft | 20 kts | 265° |
| 2026-05-05 14:07 | 48.99981 | 2.57730 | 354 ft | 22 kts | 266° |
| 2026-05-05 14:07 | 48.99970 | 2.57493 | 354 ft | 23 kts | 266° |
| 2026-05-05 14:08 | 48.99957 | 2.57244 | 354 ft | 24 kts | 265° |
| 2026-05-05 14:08 | 48.99941 | 2.56981 | 357 ft | 26 kts | 265° |
| 2026-05-05 14:08 | 48.99927 | 2.56704 | 360 ft | 27 kts | 264° |
| 2026-05-05 14:08 | 48.99913 | 2.56457 | 360 ft | 21 kts | 265° |
| 2026-05-05 14:09 | 48.99902 | 2.56232 | 358 ft | 22 kts | 265° |
| 2026-05-05 14:09 | 48.99870 | 2.56029 | 358 ft | 18 kts | 211° |
| 2026-05-05 14:09 | 48.99753 | 2.56025 | 357 ft | 16 kts | 175° |
| 2026-05-05 14:09 | 48.99646 | 2.56041 | 356 ft | 15 kts | 169° |
| 2026-05-05 14:10 | 48.99614 | 2.56122 | 355 ft | 0 kts | 87° |
| 2026-05-05 14:12 | 48.99616 | 2.56159 | 358 ft | 16 kts | 86° |
| 2026-05-05 14:13 | 48.99649 | 2.56727 | 356 ft | 88 kts | 85° |
| 2026-05-05 14:13 | 48.99716 | 2.57962 | 358 ft | 143 kts | 85° |
| 2026-05-05 14:13 | 48.99784 | 2.59696 | 493 ft | 176 kts | 84° |
| 2026-05-05 14:13 | 48.99847 | 2.61580 | 1086 ft | 181 kts | 82° |
| 2026-05-05 14:14 | 48.99950 | 2.63488 | 1826 ft | 181 kts | 80° |
| 2026-05-05 14:14 | 49.00076 | 2.65426 | 2219 ft | 196 kts | 81° |
| 2026-05-05 14:14 | 49.00221 | 2.67640 | 2434 ft | 224 kts | 82° |
| 2026-05-05 14:14 | 49.00375 | 2.70124 | 2886 ft | 244 kts | 83° |
| 2026-05-05 14:15 | 49.00526 | 2.72724 | 3721 ft | 248 kts | 83° |
| 2026-05-05 14:15 | 49.00668 | 2.75354 | 4840 ft | 253 kts | 84° |
| 2026-05-05 14:15 | 49.00813 | 2.78074 | 5863 ft | 260 kts | 84° |
| 2026-05-05 14:15 | 49.00960 | 2.80835 | 6873 ft | 264 kts | 84° |
| 2026-05-05 14:16 | 49.01108 | 2.83645 | 7773 ft | 268 kts | 84° |
| 2026-05-05 14:16 | 49.01266 | 2.86481 | 8693 ft | 271 kts | 84° |
| 2026-05-05 14:16 | 49.01427 | 2.89364 | 9583 ft | 274 kts | 83° |
| 2026-05-05 14:16 | 49.01582 | 2.92286 | 10247 ft | 284 kts | 84° |
| 2026-05-05 14:17 | 49.01763 | 2.95414 | 10413 ft | 309 kts | 82° |
| 2026-05-05 14:17 | 49.02095 | 2.98760 | 10617 ft | 322 kts | 80° |
| 2026-05-05 14:17 | 49.02485 | 3.02092 | 10702 ft | 328 kts | 79° |
| 2026-05-05 14:17 | 49.02922 | 3.05582 | 11239 ft | 336 kts | 79° |
| 2026-05-05 14:18 | 49.03381 | 3.09093 | 11916 ft | 341 kts | 79° |
| 2026-05-05 14:18 | 49.03845 | 3.12664 | 12633 ft | 344 kts | 79° |
| 2026-05-05 14:18 | 49.04286 | 3.16266 | 13348 ft | 348 kts | 80° |
| 2026-05-05 14:18 | 49.04720 | 3.19864 | 13965 ft | 352 kts | 81° |
| 2026-05-05 14:19 | 49.05134 | 3.23560 | 14542 ft | 357 kts | 82° |
| 2026-05-05 14:19 | 49.05539 | 3.27327 | 15094 ft | 361 kts | 82° |
| 2026-05-05 14:19 | 49.05946 | 3.31120 | 15719 ft | 364 kts | 82° |
| 2026-05-05 14:19 | 49.06359 | 3.34946 | 16252 ft | 370 kts | 82° |
| 2026-05-05 14:20 | 49.06800 | 3.38842 | 16723 ft | 376 kts | 81° |
| 2026-05-05 14:20 | 49.07269 | 3.42801 | 17268 ft | 381 kts | 81° |
| 2026-05-05 14:20 | 49.07730 | 3.46756 | 18087 ft | 378 kts | 82° |
| 2026-05-05 14:20 | 49.08165 | 3.50715 | 18561 ft | 382 kts | 82° |
| 2026-05-05 14:21 | 49.08600 | 3.54766 | 18741 ft | 385 kts | 82° |
| 2026-05-05 14:21 | 49.09026 | 3.58818 | 18802 ft | 397 kts | 83° |
| 2026-05-05 14:21 | 49.09458 | 3.63021 | 18812 ft | 402 kts | 83° |
| 2026-05-05 14:21 | 49.09891 | 3.67245 | 18804 ft | 404 kts | 83° |
| 2026-05-05 14:22 | 49.10329 | 3.71487 | 18804 ft | 405 kts | 83° |
| 2026-05-05 14:22 | 49.10767 | 3.75724 | 18806 ft | 405 kts | 83° |
| 2026-05-05 14:22 | 49.11208 | 3.79979 | 18806 ft | 405 kts | 83° |
| 2026-05-05 14:22 | 49.11647 | 3.84221 | 18805 ft | 406 kts | 83° |
| 2026-05-05 14:23 | 49.12088 | 3.88485 | 18807 ft | 406 kts | 83° |
| 2026-05-05 14:23 | 49.12523 | 3.92740 | 18809 ft | 406 kts | 83° |
| 2026-05-05 14:23 | 49.12955 | 3.97008 | 18809 ft | 406 kts | 83° |
| 2026-05-05 14:23 | 49.13489 | 4.01196 | 18808 ft | 408 kts | 76° |
| 2026-05-05 14:24 | 49.14499 | 4.05296 | 18805 ft | 411 kts | 66° |
| 2026-05-05 14:24 | 49.15991 | 4.09050 | 18806 ft | 414 kts | 55° |
| 2026-05-05 14:24 | 49.17786 | 4.12415 | 18804 ft | 415 kts | 52° |
| 2026-05-05 14:24 | 49.19630 | 4.15823 | 18807 ft | 415 kts | 52° |
| 2026-05-05 14:25 | 49.21466 | 4.19237 | 18804 ft | 415 kts | 52° |
| 2026-05-05 14:25 | 49.23289 | 4.22662 | 18803 ft | 414 kts | 54° |
| 2026-05-05 14:25 | 49.24834 | 4.26359 | 18803 ft | 411 kts | 65° |
| 2026-05-05 14:25 | 49.25933 | 4.30381 | 18803 ft | 409 kts | 75° |
| 2026-05-05 14:26 | 49.26651 | 4.34584 | 18808 ft | 408 kts | 78° |
| 2026-05-05 14:26 | 49.27335 | 4.38805 | 18810 ft | 409 kts | 78° |
| 2026-05-05 14:26 | 49.28027 | 4.43027 | 18807 ft | 409 kts | 78° |
| 2026-05-05 14:26 | 49.28721 | 4.47246 | 18811 ft | 409 kts | 78° |
| 2026-05-05 14:27 | 49.29412 | 4.51464 | 18811 ft | 409 kts | 78° |
| 2026-05-05 14:27 | 49.30102 | 4.55690 | 18807 ft | 409 kts | 78° |
| 2026-05-05 14:27 | 49.30784 | 4.59907 | 18808 ft | 404 kts | 78° |
| 2026-05-05 14:27 | 49.31456 | 4.64105 | 18813 ft | 408 kts | 78° |
| 2026-05-05 14:28 | 49.32134 | 4.68335 | 18812 ft | 409 kts | 78° |
| 2026-05-05 14:28 | 49.32818 | 4.72583 | 18813 ft | 409 kts | 78° |
| 2026-05-05 14:28 | 49.33501 | 4.76817 | 18813 ft | 410 kts | 78° |
| 2026-05-05 14:28 | 49.34182 | 4.81059 | 18820 ft | 409 kts | 78° |
| 2026-05-05 14:29 | 49.34859 | 4.85297 | 18814 ft | 410 kts | 79° |
| 2026-05-05 14:29 | 49.35531 | 4.89549 | 18815 ft | 410 kts | 79° |
| 2026-05-05 14:29 | 49.36205 | 4.93807 | 18810 ft | 411 kts | 79° |
| 2026-05-05 14:29 | 49.36877 | 4.98061 | 18808 ft | 410 kts | 79° |
| 2026-05-05 14:30 | 49.37544 | 5.02315 | 18818 ft | 410 kts | 79° |
| 2026-05-05 14:30 | 49.38208 | 5.06580 | 18813 ft | 410 kts | 79° |
| 2026-05-05 14:30 | 49.38871 | 5.10838 | 18812 ft | 410 kts | 79° |
| 2026-05-05 14:30 | 49.39686 | 5.15040 | 18810 ft | 412 kts | 74° |
| 2026-05-05 14:31 | 49.40600 | 5.19205 | 18811 ft | 412 kts | 74° |
| 2026-05-05 14:31 | 49.41508 | 5.23359 | 18812 ft | 412 kts | 74° |
| 2026-05-05 14:31 | 49.42407 | 5.27492 | 18812 ft | 412 kts | 74° |
| 2026-05-05 14:31 | 49.43312 | 5.31653 | 18813 ft | 412 kts | 74° |
| 2026-05-05 14:32 | 49.44218 | 5.35831 | 18712 ft | 411 kts | 74° |
| 2026-05-05 14:32 | 49.45115 | 5.39979 | 18121 ft | 410 kts | 74° |
| 2026-05-05 14:32 | 49.46001 | 5.44087 | 17931 ft | 397 kts | 74° |
| 2026-05-05 14:32 | 49.46854 | 5.48042 | 17795 ft | 384 kts | 74° |
| 2026-05-05 14:33 | 49.47675 | 5.51865 | 17653 ft | 367 kts | 74° |
| 2026-05-05 14:33 | 49.48440 | 5.55478 | 17480 ft | 344 kts | 77° |
| 2026-05-05 14:33 | 49.48842 | 5.59016 | 16974 ft | 330 kts | 88° |
| 2026-05-05 14:33 | 49.49017 | 5.62506 | 16331 ft | 326 kts | 88° |
| 2026-05-05 14:34 | 49.49185 | 5.65971 | 15754 ft | 326 kts | 88° |
| 2026-05-05 14:34 | 49.49353 | 5.69429 | 15432 ft | 323 kts | 88° |
| 2026-05-05 14:34 | 49.49524 | 5.72859 | 15093 ft | 321 kts | 88° |
| 2026-05-05 14:34 | 49.49608 | 5.74533 | 14924 ft | 320 kts | 88° |
| 2026-05-05 14:35 | 49.49780 | 5.77949 | 14563 ft | 319 kts | 88° |
| 2026-05-05 14:35 | 49.49951 | 5.81363 | 14219 ft | 317 kts | 88° |
| 2026-05-05 14:35 | 49.50119 | 5.84717 | 13871 ft | 315 kts | 88° |
| 2026-05-05 14:35 | 49.50283 | 5.88051 | 13289 ft | 311 kts | 88° |
| 2026-05-05 14:36 | 49.50445 | 5.91359 | 12717 ft | 310 kts | 88° |
| 2026-05-05 14:36 | 49.50604 | 5.94658 | 12166 ft | 307 kts | 88° |
| 2026-05-05 14:36 | 49.50763 | 5.97926 | 11620 ft | 305 kts | 88° |
| 2026-05-05 14:36 | 49.50919 | 6.01171 | 11054 ft | 303 kts | 88° |
| 2026-05-05 14:37 | 49.51072 | 6.04371 | 10645 ft | 303 kts | 88° |
| 2026-05-05 14:37 | 49.51225 | 6.07588 | 10262 ft | 302 kts | 88° |
| 2026-05-05 14:37 | 49.51376 | 6.10806 | 9971 ft | 299 kts | 88° |
| 2026-05-05 14:37 | 49.51523 | 6.13969 | 9524 ft | 295 kts | 88° |
| 2026-05-05 14:38 | 49.51668 | 6.17104 | 8943 ft | 290 kts | 88° |
| 2026-05-05 14:38 | 49.51810 | 6.20194 | 8551 ft | 288 kts | 88° |
| 2026-05-05 14:38 | 49.51949 | 6.23244 | 8171 ft | 287 kts | 88° |
| 2026-05-05 14:38 | 49.52113 | 6.26309 | 7791 ft | 286 kts | 83° |
| 2026-05-05 14:39 | 49.52658 | 6.29262 | 7412 ft | 288 kts | 68° |
| 2026-05-05 14:39 | 49.53680 | 6.31874 | 7023 ft | 287 kts | 52° |
| 2026-05-05 14:39 | 49.54971 | 6.34246 | 6625 ft | 286 kts | 51° |
| 2026-05-05 14:39 | 49.56250 | 6.36596 | 6236 ft | 285 kts | 51° |
| 2026-05-05 14:40 | 49.57521 | 6.38934 | 5838 ft | 284 kts | 51° |
| 2026-05-05 14:40 | 49.58766 | 6.41230 | 5586 ft | 276 kts | 51° |
| 2026-05-05 14:40 | 49.59990 | 6.43493 | 5234 ft | 273 kts | 51° |
| 2026-05-05 14:40 | 49.61183 | 6.45698 | 4867 ft | 262 kts | 51° |
| 2026-05-05 14:41 | 49.62326 | 6.47806 | 4519 ft | 250 kts | 50° |
| 2026-05-05 14:41 | 49.63647 | 6.49428 | 4172 ft | 240 kts | 23° |
| 2026-05-05 14:41 | 49.65249 | 6.49956 | 3878 ft | 234 kts | 355° |
| 2026-05-05 14:41 | 49.66815 | 6.49360 | 3670 ft | 232 kts | 330° |
| 2026-05-05 14:42 | 49.68199 | 6.48160 | 3463 ft | 230 kts | 328° |
| 2026-05-05 14:42 | 49.69500 | 6.46795 | 3243 ft | 221 kts | 310° |
| 2026-05-05 14:42 | 49.70253 | 6.44856 | 3082 ft | 204 kts | 284° |
| 2026-05-05 14:42 | 49.70364 | 6.42734 | 3019 ft | 192 kts | 259° |
| 2026-05-05 14:43 | 49.69956 | 6.40930 | 3004 ft | 168 kts | 239° |
| 2026-05-05 14:43 | 49.69409 | 6.39452 | 3012 ft | 151 kts | 240° |
| 2026-05-05 14:43 | 49.68903 | 6.38076 | 3003 ft | 144 kts | 239° |
| 2026-05-05 14:43 | 49.68410 | 6.36740 | 3007 ft | 142 kts | 239° |
| 2026-05-05 14:44 | 49.67922 | 6.35417 | 2939 ft | 142 kts | 239° |
| 2026-05-05 14:44 | 49.67434 | 6.34096 | 2794 ft | 141 kts | 239° |
| 2026-05-05 14:44 | 49.66948 | 6.32778 | 2620 ft | 141 kts | 239° |
| 2026-05-05 14:44 | 49.66460 | 6.31458 | 2445 ft | 141 kts | 239° |
| 2026-05-05 14:45 | 49.65974 | 6.30143 | 2253 ft | 141 kts | 239° |
| 2026-05-05 14:45 | 49.65488 | 6.28830 | 2062 ft | 141 kts | 239° |
| 2026-05-05 14:45 | 49.65005 | 6.27525 | 1865 ft | 140 kts | 239° |
| 2026-05-05 14:45 | 49.64528 | 6.26218 | 1645 ft | 139 kts | 239° |
| 2026-05-05 14:46 | 49.64056 | 6.24923 | 1458 ft | 139 kts | 239° |
| 2026-05-05 14:46 | 49.63568 | 6.23647 | 1287 ft | 138 kts | 240° |
| 2026-05-05 14:46 | 49.63127 | 6.22454 | 1209 ft | 110 kts | 240° |
| 2026-05-05 14:46 | 49.62834 | 6.21668 | 1198 ft | 60 kts | 240° |
| 2026-05-05 14:47 | 49.62668 | 6.21187 | 1199 ft | 35 kts | 250° |
| 2026-05-05 14:47 | 49.62648 | 6.20894 | 1198 ft | 17 kts | 271° |
| 2026-05-05 14:47 | 49.62695 | 6.20742 | 1201 ft | 15 kts | 338° |
| 2026-05-05 14:47 | 49.62779 | 6.20757 | 1205 ft | 11 kts | 22° |
| 2026-05-05 14:48 | 49.62842 | 6.20890 | 1206 ft | 18 kts | 66° |
| 2026-05-05 14:48 | 49.62897 | 6.21057 | 1208 ft | 17 kts | 64° |
| 2026-05-05 14:48 | 49.62944 | 6.21217 | 1206 ft | 16 kts | 63° |
| 2026-05-05 14:48 | 49.62991 | 6.21357 | 1206 ft | 14 kts | 68° |
| 2026-05-05 14:49 | 49.63031 | 6.21501 | 1205 ft | 17 kts | 65° |
| 2026-05-05 14:49 | 49.63084 | 6.21669 | 1207 ft | 16 kts | 66° |
| 2026-05-05 14:49 | 49.63128 | 6.21813 | 1209 ft | 14 kts | 64° |
| 2026-05-05 14:49 | 49.63166 | 6.21941 | 1211 ft | 11 kts | 64° |
| 2026-05-05 14:50 | 49.63187 | 6.22004 | 1213 ft | 9 kts | 63° |
| 2026-05-05 14:50 | 49.63245 | 6.22119 | 1213 ft | 16 kts | 6° |
| 2026-05-05 14:50 | 49.63329 | 6.22030 | 1216 ft | 14 kts | 313° |
| 2026-05-05 14:50 | 49.63355 | 6.21917 | 1220 ft | 10 kts | 263° |
| 2026-05-05 14:51 | 49.63334 | 6.21821 | 1221 ft | 9 kts | 243° |
| 2026-05-05 14:51 | 49.63311 | 6.21723 | 1220 ft | 10 kts | 294° |
| 2026-05-05 14:51 | 49.63338 | 6.21699 | 1222 ft | 1 kts | 333° |
| 2026-05-05 14:51 | 49.63349 | 6.21689 | 1222 ft | 1 kts | 331° |
| 2026-05-05 14:52 | 49.63357 | 6.21682 | 1223 ft | 0 kts | 331° |